Beechwood, Michigan
Current Conditions -  °F | °C
As of 8:15 AM on Friday 31 Oct 2014 (Local Time) from KLNL Reporting Station
Light Snow Light Snow  
Wind Chill: 15°   Ceiling: 1800
Heat Index: 27°   Visibility: 7mi
Dew Point: 24°   Wind: 14mph
Humidity: 88%   Direction: 360°N
Pressure: 30.34"   Gusts: 23mph
Location:  46.2163°N, 88.7676°W
Report Text: KLNL 311315Z AUTO 36012G20KT 7SM -SN SCT012 BKN018 OVC047 M03/M05 A3034 RMK AO2 T10301047
Loading
Personal Weather Stations






























Interactive Weather Map
Tropical Storm Tracking
New forecast layout! Learn more

10-Day Weather Forecast

Advertisements
Track Severe Weather on mobile